Time;durP1;ratioP1;P1;durP2;ratioP2;P2;SDS_P1;SDS_P2;PMS_P1;PMS_P2;Temp;Humidity;BMP_temperature;BMP_pressure;BME280_temperature;BME280_humidity;BME280_pressure;Samples;Min_cycle;Max_cycle;Signal;HPM_P1;HPM_P2
2021/04/15 00:02:16;;;;;;;3.90;3.70;;;4.20;99.90;;;;;;5065122;28;20194;-83
2021/04/15 00:04:42;;;;;;;4.50;3.90;;;4.20;99.90;;;;;;5080496;28;20817;-84
2021/04/15 00:07:09;;;;;;;4.53;4.13;;;4.30;99.90;;;;;;5080652;28;20215;-83
2021/04/15 00:09:36;;;;;;;4.28;3.88;;;4.40;99.90;;;;;;5080267;28;20241;-83
2021/04/15 00:12:02;;;;;;;5.03;4.57;;;4.30;99.90;;;;;;5080649;28;20658;-82
2021/04/15 00:14:29;;;;;;;4.45;4.05;;;4.30;99.90;;;;;;5081275;28;20229;-83
2021/04/15 00:16:56;;;;;;;5.32;3.60;;;4.30;99.90;;;;;;5080491;28;20746;-83
2021/04/15 00:19:24;;;;;;;4.32;3.97;;;4.20;99.90;;;;;;5079026;28;20249;-84
2021/04/15 00:21:51;;;;;;;5.50;4.40;;;4.20;99.90;;;;;;5080003;28;20605;-83
2021/04/15 00:24:17;;;;;;;6.43;4.50;;;4.00;99.90;;;;;;5079356;28;20271;-85
2021/04/15 00:26:44;;;;;;;4.55;4.15;;;4.10;99.90;;;;;;5078992;28;20569;-84
2021/04/15 00:29:11;;;;;;;6.05;4.63;;;4.00;99.90;;;;;;5082012;28;20613;-84
2021/04/15 00:31:38;;;;;;;4.00;3.65;;;3.90;99.90;;;;;;5080289;28;20218;-85
2021/04/15 00:34:05;;;;;;;6.40;4.90;;;3.90;99.90;;;;;;5079875;28;20256;-83
2021/04/15 00:36:33;;;;;;;4.50;4.10;;;3.80;99.90;;;;;;5081258;28;20230;-84
2021/04/15 00:39:05;;;;;;;10.05;5.03;;;3.90;99.90;;;;;;5078628;28;20225;-84
2021/04/15 00:41:32;;;;;;;5.45;4.50;;;3.80;99.90;;;;;;5077893;28;20191;-84
2021/04/15 00:43:59;;;;;;;5.65;4.95;;;3.60;99.90;;;;;;5079723;28;20187;-84
2021/04/15 00:46:45;;;;;;;4.97;4.43;;;3.60;99.90;;;;;;5080025;28;20674;-84
2021/04/15 00:49:16;;;;;;;5.40;4.90;;;3.50;99.90;;;;;;5079613;28;20268;-85
2021/04/15 00:51:48;;;;;;;6.18;5.15;;;3.60;99.90;;;;;;5079461;28;20658;-84
2021/04/15 00:54:26;;;;;;;5.18;4.78;;;3.40;99.90;;;;;;5080264;28;20290;-84
2021/04/15 00:56:53;;;;;;;7.55;5.68;;;3.60;99.90;;;;;;5078541;28;20766;-84
2021/04/15 00:59:20;;;;;;;7.18;5.55;;;3.50;99.90;;;;;;5080291;28;20575;-85
2021/04/15 01:01:48;;;;;;;5.80;5.18;;;3.60;99.90;;;;;;5080189;28;20199;-84
2021/04/15 01:04:15;;;;;;;6.20;5.60;;;3.70;99.90;;;;;;5081247;28;20191;-84
2021/04/15 01:06:42;;;;;;;6.93;6.07;;;3.60;99.90;;;;;;5080946;28;20281;-85
2021/04/15 01:09:10;;;;;;;8.07;5.88;;;3.70;99.90;;;;;;5080904;28;20575;-84
2021/04/15 01:11:53;;;;;;;6.75;5.50;;;3.80;99.90;;;;;;5080076;28;20218;-85
2021/04/15 01:14:32;;;;;;;8.07;6.35;;;3.80;99.90;;;;;;5080412;28;20263;-85
2021/04/15 01:17:03;;;;;;;8.05;6.15;;;3.80;99.90;;;;;;5062911;28;20206;-85
2021/04/15 01:19:58;;;;;;;6.43;5.28;;;3.80;99.90;;;;;;5079482;28;20201;-84
2021/04/15 01:23:01;;;;;;;6.38;5.72;;;3.70;99.90;;;;;;5080088;28;20573;-84
2021/04/15 01:25:44;;;;;;;5.72;5.22;;;3.60;99.90;;;;;;5078883;28;20224;-84
2021/04/15 01:28:29;;;;;;;6.95;5.90;;;3.50;99.90;;;;;;5077781;28;20781;-84
2021/04/15 01:31:02;;;;;;;6.43;5.82;;;3.50;99.90;;;;;;5077810;28;20219;-83
2021/04/15 01:33:37;;;;;;;6.28;5.68;;;3.60;99.90;;;;;;5077840;28;20198;-84
2021/04/15 01:36:07;;;;;;;7.03;5.75;;;3.60;99.90;;;;;;5078805;28;20593;-84
2021/04/15 01:38:39;;;;;;;12.35;6.97;;;3.70;99.90;;;;;;5077663;28;20214;-85
2021/04/15 01:41:13;;;;;;;7.90;6.22;;;3.50;99.90;;;;;;5078900;28;20187;-84
2021/04/15 01:43:48;;;;;;;7.18;6.30;;;3.50;99.90;;;;;;5078087;28;20191;-85
2021/04/15 01:46:18;;;;;;;6.65;5.95;;;3.50;99.90;;;;;;5079049;28;20187;-85
2021/04/15 01:48:47;;;;;;;10.27;5.70;;;3.30;99.90;;;;;;5077205;28;20225;-84
2021/04/15 01:51:18;;;;;;;6.57;5.97;;;3.40;99.90;;;;;;5078692;28;20318;-85
2021/04/15 01:53:48;;;;;;;6.10;5.60;;;3.30;99.90;;;;;;5079305;28;20194;-84
2021/04/15 01:56:20;;;;;;;7.15;6.43;;;3.40;99.90;;;;;;5079556;28;20220;-84
2021/04/15 01:58:53;;;;;;;8.27;6.88;;;3.30;99.90;;;;;;5078100;28;20812;-85
2021/04/15 02:01:34;;;;;;;8.50;6.47;;;3.40;99.90;;;;;;5062777;28;20281;-84
2021/04/15 02:04:07;;;;;;;7.90;6.97;;;3.50;99.90;;;;;;5078703;28;20228;-85
2021/04/15 02:06:37;;;;;;;7.35;6.45;;;3.50;99.90;;;;;;5087411;28;20662;-84
2021/04/15 02:09:08;;;;;;;9.27;6.53;;;3.30;99.90;;;;;;5091994;28;20338;-84
2021/04/15 02:11:41;;;;;;;6.60;6.03;;;3.40;99.90;;;;;;5091235;28;20226;-84
2021/04/15 02:14:12;;;;;;;7.28;6.65;;;3.30;99.90;;;;;;5091130;28;20217;-84
2021/04/15 02:16:42;;;;;;;7.07;5.97;;;3.40;99.90;;;;;;5092096;28;20199;-84
2021/04/15 02:19:15;;;;;;;6.93;6.20;;;3.40;99.90;;;;;;5091596;28;20223;-84
2021/04/15 02:21:47;;;;;;;6.80;6.07;;;3.50;99.90;;;;;;5073323;28;20198;-84
2021/04/15 02:24:23;;;;;;;7.78;6.97;;;3.40;99.90;;;;;;5089720;28;20207;-84
2021/04/15 02:26:59;;;;;;;7.38;6.20;;;3.30;99.90;;;;;;5090671;28;20182;-85
2021/04/15 02:29:28;;;;;;;9.10;7.07;;;3.10;99.90;;;;;;5091636;28;20182;-85
2021/04/15 02:32:00;;;;;;;11.55;6.22;;;3.20;99.90;;;;;;5091103;28;20201;-84
2021/04/15 02:34:32;;;;;;;7.93;7.13;;;3.10;99.90;;;;;;5085195;28;20198;-85
2021/04/15 02:37:06;;;;;;;8.32;6.75;;;3.10;99.90;;;;;;5083193;28;20305;-85
2021/04/15 02:39:35;;;;;;;10.20;7.22;;;3.40;99.90;;;;;;5080387;28;20206;-84
2021/04/15 02:42:04;;;;;;;7.63;6.80;;;3.20;99.90;;;;;;5079556;28;20214;-84
2021/04/15 02:44:46;;;;;;;7.30;6.55;;;3.10;99.90;;;;;;5085462;28;20203;-86
2021/04/15 02:47:17;;;;;;;10.45;7.28;;;3.10;99.90;;;;;;5080211;28;20222;-85
2021/04/15 02:49:47;;;;;;;9.50;7.40;;;3.30;99.90;;;;;;5062687;28;20226;-84
2021/04/15 02:52:18;;;;;;;8.88;7.90;;;3.20;99.90;;;;;;5078452;28;20190;-85
2021/04/15 02:54:54;;;;;;;7.72;6.90;;;3.30;99.90;;;;;;5078504;28;20273;-85
2021/04/15 02:57:45;;;;;;;9.63;7.78;;;3.40;99.90;;;;;;5083413;23;20591;-78
2021/04/15 03:00:17;;;;;;;8.70;7.50;;;3.30;99.90;;;;;;5075759;28;20669;-79
2021/04/15 03:02:46;;;;;;;8.20;7.38;;;3.20;99.90;;;;;;5074559;28;20222;-79
2021/04/15 03:05:20;;;;;;;9.23;8.07;;;3.30;99.90;;;;;;5076024;28;20194;-79
2021/04/15 03:07:50;;;;;;;8.95;8.05;;;3.20;99.90;;;;;;5074619;28;20218;-79
2021/04/15 03:10:20;;;;;;;10.48;8.00;;;3.00;99.90;;;;;;5067752;28;20242;-79
2021/04/15 03:12:52;;;;;;;9.00;7.38;;;2.80;99.90;;;;;;5067660;28;20803;-79
2021/04/15 03:15:23;;;;;;;8.73;7.45;;;2.80;99.90;;;;;;5076452;28;20214;-79
2021/04/15 03:17:56;;;;;;;8.02;7.22;;;2.70;99.90;;;;;;5075267;28;20219;-79
2021/04/15 03:20:29;;;;;;;12.38;7.57;;;2.50;99.90;;;;;;5076036;28;20199;-79
2021/04/15 03:22:59;;;;;;;10.15;8.73;;;2.40;99.90;;;;;;5075667;28;20186;-79
2021/04/15 03:25:26;;;;;;;10.55;8.90;;;2.50;99.90;;;;;;5076423;28;20199;-79
2021/04/15 03:27:58;;;;;;;10.95;8.07;;;2.40;99.90;;;;;;5075282;28;20219;-79
2021/04/15 03:30:32;;;;;;;11.00;9.88;;;2.40;99.90;;;;;;5076286;28;20276;-79
2021/04/15 03:33:06;;;;;;;8.32;7.60;;;2.70;99.90;;;;;;5074614;28;20203;-79
2021/04/15 03:35:37;;;;;;;9.55;8.73;;;2.80;99.90;;;;;;5076430;28;20194;-79
2021/04/15 03:38:09;;;;;;;12.55;8.98;;;2.50;99.90;;;;;;5076841;28;20214;-79
2021/04/15 03:40:38;;;;;;;12.23;8.60;;;2.50;99.90;;;;;;5075884;28;20218;-79
2021/04/15 03:43:11;;;;;;;12.77;8.88;;;2.70;99.90;;;;;;5075925;28;20191;-79
2021/04/15 03:45:43;;;;;;;9.95;7.85;;;2.80;99.90;;;;;;5076656;28;20226;-79
2021/04/15 03:48:15;;;;;;;11.63;9.25;;;2.80;99.90;;;;;;5075383;28;20702;-79
2021/04/15 03:50:49;;;;;;;11.70;10.30;;;2.80;99.90;;;;;;5076854;28;20245;-79
2021/04/15 03:53:20;;;;;;;9.73;8.60;;;2.60;99.90;;;;;;5075000;28;20198;-79
2021/04/15 03:55:54;;;;;;;12.10;9.07;;;2.30;99.90;;;;;;5076219;28;20637;-79
2021/04/15 03:58:25;;;;;;;12.93;10.23;;;2.10;99.90;;;;;;5077207;28;20227;-79
2021/04/15 04:00:56;;;;;;;15.85;10.13;;;2.10;99.90;;;;;;5062261;28;20199;-80
2021/04/15 04:03:26;;;;;;;9.50;8.38;;;2.30;99.90;;;;;;5082942;28;20225;-80
2021/04/15 04:06:01;;;;;;;14.65;10.45;;;2.60;99.90;;;;;;5094328;28;20201;-79
2021/04/15 04:08:37;;;;;;;13.18;10.45;;;2.60;99.90;;;;;;5083053;28;20248;-79
2021/04/15 04:11:05;;;;;;;9.57;8.57;;;2.50;99.90;;;;;;5077239;28;20225;-79
2021/04/15 04:13:35;;;;;;;10.85;9.85;;;2.70;99.90;;;;;;5077171;28;20194;-79
2021/04/15 04:16:09;;;;;;;14.25;10.65;;;2.70;99.90;;;;;;5077296;28;20222;-79
2021/04/15 04:18:45;;;;;;;16.17;10.27;;;2.60;99.90;;;;;;5059485;28;20696;-79
2021/04/15 04:21:19;;;;;;;10.50;9.50;;;2.60;99.90;;;;;;5077734;28;20191;-79
2021/04/15 04:23:52;;;;;;;13.82;9.35;;;2.40;99.90;;;;;;5083419;28;20290;-79
2021/04/15 04:26:24;;;;;;;11.65;9.77;;;2.10;99.90;;;;;;5083754;28;20195;-79
2021/04/15 04:29:05;;;;;;;10.77;9.27;;;2.10;99.90;;;;;;5082833;28;20226;-79
2021/04/15 04:31:38;;;;;;;10.43;9.35;;;2.00;99.90;;;;;;5081628;28;20218;-79
2021/04/15 04:34:07;;;;;;;12.15;9.18;;;1.80;99.90;;;;;;5083076;28;20187;-79
2021/04/15 04:36:36;;;;;;;14.05;10.35;;;1.70;99.90;;;;;;5083318;28;20682;-79
2021/04/15 04:39:06;;;;;;;12.45;10.55;;;1.60;99.90;;;;;;5083140;28;20242;-79
2021/04/15 04:41:50;;;;;;;12.90;10.65;;;1.50;99.90;;;;;;5081931;28;20191;-79
2021/04/15 04:44:25;;;;;;;13.75;11.00;;;1.40;99.90;;;;;;5083658;28;20266;-79
2021/04/15 04:47:02;;;;;;;12.10;10.93;;;1.60;99.90;;;;;;5082873;28;20277;-79
2021/04/15 04:49:32;;;;;;;14.40;9.65;;;1.70;99.90;;;;;;5064894;28;20709;-80
2021/04/15 04:52:03;;;;;;;12.77;11.18;;;1.70;99.90;;;;;;5064480;28;20210;-79
2021/04/15 04:54:30;;;;;;;15.18;11.73;;;1.90;99.90;;;;;;5082075;28;20256;-79
2021/04/15 04:57:05;;;;;;;14.90;10.50;;;2.00;99.90;;;;;;5081072;28;20195;-79
2021/04/15 04:59:36;;;;;;;17.00;10.60;;;2.00;99.90;;;;;;5086271;28;20232;-80
2021/04/15 05:02:05;;;;;;;13.73;10.60;;;2.20;99.90;;;;;;5083446;28;20249;-79
2021/04/15 05:04:35;;;;;;;11.82;8.90;;;2.40;99.90;;;;;;5082406;28;20203;-80
2021/04/15 05:07:03;;;;;;;14.48;10.05;;;2.50;99.90;;;;;;5082563;28;20259;-79
2021/04/15 05:09:33;;;;;;;11.13;10.00;;;2.60;99.90;;;;;;5081842;28;20301;-80
2021/04/15 05:12:05;;;;;;;12.15;10.52;;;2.70;99.90;;;;;;5077236;28;20236;-79
2021/04/15 05:14:32;;;;;;;16.15;9.82;;;2.50;99.90;;;;;;5098893;28;20179;-80
2021/04/15 05:17:13;;;;;;;11.27;9.75;;;2.50;99.90;;;;;;5087061;28;20262;-79
2021/04/15 05:19:41;;;;;;;13.40;10.32;;;2.50;99.90;;;;;;5083383;28;20289;-79
2021/04/15 05:22:09;;;;;;;11.82;9.80;;;2.30;99.90;;;;;;5081809;28;20195;-80
2021/04/15 05:24:42;;;;;;;14.07;10.07;;;2.20;99.90;;;;;;5083639;28;20193;-79
2021/04/15 05:27:12;;;;;;;13.25;10.45;;;2.00;99.90;;;;;;5083608;28;20214;-79
2021/04/15 05:29:42;;;;;;;12.73;9.77;;;1.90;99.90;;;;;;5083853;28;20202;-79
2021/04/15 05:32:12;;;;;;;13.43;10.48;;;1.80;99.90;;;;;;5082812;28;20198;-80
2021/04/15 05:34:43;;;;;;;12.53;10.50;;;1.80;99.90;;;;;;5082892;28;20674;-79
2021/04/15 05:37:15;;;;;;;11.93;10.80;;;1.90;99.90;;;;;;5083153;28;20203;-79
2021/04/15 05:39:43;;;;;;;13.15;11.18;;;1.80;99.90;;;;;;5083790;28;20233;-79
2021/04/15 05:42:18;;;;;;;12.85;11.52;;;2.00;99.90;;;;;;5085036;28;20191;-79
2021/04/15 05:44:48;;;;;;;15.50;12.73;;;2.20;99.90;;;;;;5083268;28;20202;-79
2021/04/15 05:47:21;;;;;;;14.48;10.73;;;2.40;99.90;;;;;;5083025;28;20201;-80
2021/04/15 05:49:52;;;;;;;14.15;11.85;;;2.50;99.90;;;;;;5085598;28;20726;-79
2021/04/15 05:52:27;;;;;;;14.88;12.30;;;2.80;99.90;;;;;;5090320;28;20209;-79
2021/04/15 05:54:59;;;;;;;16.52;12.65;;;3.10;99.90;;;;;;5085164;28;20190;-80
2021/04/15 05:57:34;;;;;;;16.83;12.55;;;3.20;99.90;;;;;;5081487;28;20209;-79
2021/04/15 06:00:09;;;;;;;13.68;11.50;;;3.20;99.90;;;;;;5081796;28;20198;-79
2021/04/15 06:02:51;;;;;;;22.70;13.73;;;3.10;99.90;;;;;;5082399;28;20198;-79
2021/04/15 06:05:24;;;;;;;18.25;13.07;;;3.30;99.90;;;;;;5084706;28;20190;-80
2021/04/15 06:07:53;;;;;;;16.65;13.60;;;3.40;99.90;;;;;;5084415;28;20276;-80
2021/04/15 06:10:22;;;;;;;21.08;14.65;;;3.40;99.90;;;;;;5084277;28;20721;-80
2021/04/15 06:13:00;;;;;;;15.15;12.95;;;3.50;99.90;;;;;;5087061;28;20201;-79
2021/04/15 06:15:31;;;;;;;15.30;13.52;;;3.50;99.90;;;;;;5069478;28;20762;-80
2021/04/15 06:18:06;;;;;;;15.60;12.00;;;3.50;99.90;;;;;;5082701;28;20244;-79
2021/04/15 06:20:35;;;;;;;15.15;12.52;;;3.50;99.90;;;;;;5083259;28;20190;-79
2021/04/15 06:23:12;;;;;;;15.40;11.60;;;3.50;99.90;;;;;;5081308;28;20195;-79
2021/04/15 06:25:44;;;;;;;15.77;12.77;;;3.40;99.90;;;;;;5081985;28;20222;-79
2021/04/15 06:28:19;;;;;;;16.00;12.73;;;3.40;99.90;;;;;;5082247;28;20222;-79
2021/04/15 06:30:57;;;;;;;18.35;13.25;;;3.40;99.90;;;;;;5081988;28;20218;-80
2021/04/15 06:33:30;;;;;;;19.05;12.93;;;3.50;99.90;;;;;;5082485;28;20248;-80
2021/04/15 06:35:59;;;;;;;15.50;13.18;;;3.70;99.90;;;;;;5081350;28;20191;-80
2021/04/15 06:38:32;;;;;;;19.52;12.57;;;3.90;99.90;;;;;;5081733;28;20232;-79
2021/04/15 06:41:10;;;;;;;18.33;14.07;;;4.00;99.90;;;;;;5081587;28;20555;-79
2021/04/15 06:44:06;;;;;;;15.90;12.77;;;3.80;99.90;;;;;;5089626;28;20212;-79
2021/04/15 06:46:49;;;;;;;14.88;13.32;;;3.90;99.90;;;;;;5088399;28;20195;-81
2021/04/15 06:49:52;;;;;;;15.98;13.27;;;4.30;99.90;;;;;;5080502;28;20214;-80
2021/04/15 06:52:23;;;;;;;18.70;13.00;;;4.40;99.90;;;;;;5070486;28;20194;-81
2021/04/15 06:55:06;;;;;;;17.27;13.27;;;4.50;99.90;;;;;;5076636;28;20198;-79
2021/04/15 06:57:59;;;;;;;15.57;11.80;;;4.60;99.90;;;;;;5078359;28;20210;-80
2021/04/15 07:00:36;;;;;;;15.27;10.93;;;4.60;99.90;;;;;;5077772;28;20202;-80
2021/04/15 07:03:15;;;;;;;17.77;11.98;;;4.50;99.90;;;;;;5077740;28;20245;-80
2021/04/15 07:05:50;;;;;;;15.95;11.80;;;4.60;99.90;;;;;;5077024;28;20225;-80
2021/04/15 07:08:48;;;;;;;13.88;11.63;;;4.80;99.90;;;;;;5082102;28;20210;-80
2021/04/15 07:11:42;;;;;;;18.63;12.45;;;4.90;99.90;;;;;;5075532;28;20222;-80
2021/04/15 07:14:25;;;;;;;14.48;9.90;;;5.10;99.90;;;;;;5078512;28;20190;-80
2021/04/15 07:17:23;;;;;;;15.65;9.10;;;5.10;99.90;;;;;;5076947;28;20262;-80
2021/04/15 07:20:16;;;;;;;14.48;11.27;;;5.10;99.90;;;;;;5078578;28;20194;-80
2021/04/15 07:23:19;;;;;;;11.80;9.55;;;5.20;99.90;;;;;;5078520;28;20183;-79
2021/04/15 07:26:16;;;;;;;13.52;10.02;;;5.10;99.90;;;;;;5060626;28;20673;-80
2021/04/15 07:29:06;;;;;;;12.65;10.25;;;5.30;99.90;;;;;;5077678;28;20264;-79
2021/04/15 07:31:56;;;;;;;11.15;9.68;;;5.50;99.90;;;;;;5075067;28;20252;-79
2021/04/15 07:34:51;;;;;;;18.27;10.88;;;5.40;99.90;;;;;;5059187;28;20206;-80
2021/04/15 07:37:32;;;;;;;11.55;9.70;;;5.60;99.90;;;;;;5080988;28;20577;-80
2021/04/15 07:40:25;;;;;;;10.93;9.65;;;5.70;99.90;;;;;;5060895;28;20222;-79
2021/04/15 07:43:01;;;;;;;9.60;8.63;;;5.80;99.90;;;;;;5049475;28;20194;-79
2021/04/15 07:45:31;;;;;;;13.25;9.95;;;6.00;99.90;;;;;;5083511;28;20255;-79
2021/04/15 07:48:38;;;;;;;11.27;9.10;;;6.20;99.90;;;;;;5082177;28;20234;-79
2021/04/15 07:51:32;;;;;;;11.35;8.93;;;6.50;99.90;;;;;;5081165;28;20221;-79
2021/04/15 07:54:25;;;;;;;11.32;8.57;;;6.20;99.90;;;;;;5082449;28;20571;-79
2021/04/15 07:57:22;;;;;;;11.02;7.78;;;6.40;99.90;;;;;;5082507;28;20202;-79
2021/04/15 08:00:26;;;;;;;12.45;8.55;;;6.50;99.90;;;;;;5081009;28;20260;-79
2021/04/15 08:03:20;;;;;;;10.63;9.02;;;6.50;99.90;;;;;;5009612;28;20669;-79
2021/04/15 08:06:08;;;;;;;11.02;7.47;;;6.70;99.90;;;;;;5067655;28;20184;-79
2021/04/15 08:08:56;;;;;;;11.55;8.10;;;6.60;99.90;;;;;;5071086;28;20217;-79
2021/04/15 08:11:41;;;;;;;11.27;8.00;;;6.90;99.90;;;;;;5078027;28;20230;-79
2021/04/15 08:14:37;;;;;;;9.27;8.38;;;7.10;99.90;;;;;;5080779;28;20293;-79
2021/04/15 08:17:17;;;;;;;13.05;8.55;;;7.00;99.90;;;;;;5080375;28;20644;-78
2021/04/15 08:20:02;;;;;;;14.90;8.07;;;7.30;99.90;;;;;;5079930;28;20484;-78
2021/04/15 08:23:13;;;;;;;13.10;7.47;;;7.30;99.90;;;;;;5081506;28;20202;-79
2021/04/15 08:25:58;;;;;;;12.38;7.55;;;7.60;99.90;;;;;;5046265;28;20202;-79
2021/04/15 08:28:37;;;;;;;12.98;8.13;;;7.60;99.90;;;;;;5081106;28;20217;-79
2021/04/15 08:31:18;;;;;;;11.25;7.22;;;7.60;99.90;;;;;;5080362;28;20236;-79
2021/04/15 08:34:12;;;;;;;7.25;6.32;;;7.70;99.90;;;;;;5080212;28;20199;-80
2021/04/15 08:37:16;;;;;;;9.70;6.47;;;7.80;99.90;;;;;;5067101;28;20202;-80
2021/04/15 08:39:56;;;;;;;15.32;9.13;;;7.70;99.90;;;;;;5075667;28;20191;-79
2021/04/15 08:42:35;;;;;;;9.70;6.78;;;8.00;99.90;;;;;;5079222;28;20187;-79
2021/04/15 08:45:22;;;;;;;11.68;6.60;;;8.10;99.90;;;;;;5076296;28;20211;-79
2021/04/15 08:48:00;;;;;;;15.63;12.77;;;8.10;99.90;;;;;;5081134;28;20356;-79
2021/04/15 08:50:40;;;;;;;14.10;7.78;;;8.40;99.90;;;;;;5080194;28;20238;-80
2021/04/15 08:53:19;;;;;;;11.05;7.15;;;8.70;99.90;;;;;;5079919;28;20210;-80
2021/04/15 08:55:50;;;;;;;10.60;6.35;;;8.80;99.90;;;;;;5059672;28;20210;-81
2021/04/15 08:58:41;;;;;;;9.60;6.78;;;8.70;99.90;;;;;;5099413;22;20227;-36
2021/04/15 09:01:15;;;;;;;11.52;7.10;;;8.60;99.90;;;;;;5064737;28;20602;-35
2021/04/15 09:03:55;;;;;;;7.68;6.20;;;8.50;99.90;;;;;;5055837;28;20202;-36
2021/04/15 09:06:26;;;;;;;10.50;5.93;;;8.70;99.90;;;;;;5062104;28;20190;-33
2021/04/15 09:09:20;;;;;;;11.10;5.07;;;8.90;99.90;;;;;;5070579;28;20500;-35
2021/04/15 09:11:59;;;;;;;10.02;6.15;;;9.00;99.90;;;;;;5061541;28;20681;-35
2021/04/15 09:14:35;;;;;;;6.57;4.75;;;9.30;99.90;;;;;;5084996;22;20229;-35
2021/04/15 09:17:05;;;;;;;7.10;5.30;;;9.50;99.90;;;;;;5070720;28;20209;-36
2021/04/15 09:19:53;;;;;;;9.68;5.97;;;9.40;99.90;;;;;;5054917;28;20249;-35
2021/04/15 09:22:39;;;;;;;10.30;6.40;;;9.50;99.90;;;;;;5061192;28;20221;-36
2021/04/15 09:25:16;;;;;;;13.93;10.52;;;9.80;99.90;;;;;;5071272;28;20206;-36
2021/04/15 09:27:53;;;;;;;11.93;7.68;;;9.90;99.90;;;;;;5069243;28;20194;-35
2021/04/15 09:30:54;;;;;;;9.52;5.30;;;10.10;99.90;;;;;;5050180;28;20208;-35
2021/04/15 09:33:39;;;;;;;8.95;5.18;;;10.30;99.90;;;;;;5061393;28;20224;-36
2021/04/15 09:36:17;;;;;;;7.15;4.97;;;10.10;99.90;;;;;;5071058;28;20652;-35
2021/04/15 09:39:09;;;;;;;4.82;4.03;;;10.20;99.90;;;;;;5068406;28;20642;-34
2021/04/15 09:42:09;;;;;;;8.20;4.95;;;10.10;99.90;;;;;;5070994;28;20297;-35
2021/04/15 09:44:54;;;;;;;7.45;3.55;;;10.00;99.90;;;;;;5059104;28;20214;-34
2021/04/15 09:47:36;;;;;;;6.90;3.85;;;10.30;99.90;;;;;;5070989;28;20285;-34
2021/04/15 09:50:19;;;;;;;6.03;4.53;;;10.30;99.90;;;;;;5070408;28;20221;-36
2021/04/15 09:53:05;;;;;;;5.60;3.78;;;10.40;99.90;;;;;;5070720;28;20220;-35
2021/04/15 09:56:06;;;;;;;5.13;3.38;;;10.50;99.90;;;;;;5070998;28;20770;-37
2021/04/15 09:58:41;;;;;;;5.70;3.58;;;10.60;99.90;;;;;;5070768;28;20291;-35
2021/04/15 10:01:13;;;;;;;4.07;3.67;;;10.90;99.90;;;;;;5070671;28;20199;-35
2021/04/15 10:03:47;;;;;;;8.65;3.78;;;11.10;99.90;;;;;;5071638;28;20214;-35
2021/04/15 10:06:20;;;;;;;8.13;4.55;;;11.30;99.90;;;;;;5068492;28;20197;-35
2021/04/15 10:09:10;;;;;;;5.43;3.50;;;11.50;99.90;;;;;;5070105;28;20210;-36
2021/04/15 10:11:51;;;;;;;8.82;4.95;;;11.40;99.90;;;;;;5068634;28;20222;-34
2021/04/15 10:14:38;;;;;;;4.10;2.83;;;11.50;99.90;;;;;;5068711;28;20553;-34
2021/04/15 10:17:18;;;;;;;5.47;4.07;;;11.60;99.90;;;;;;5069075;28;20201;-35
2021/04/15 10:20:11;;;;;;;11.65;5.72;;;11.00;99.90;;;;;;5070592;28;20202;-34
2021/04/15 10:22:49;;;;;;;5.63;4.60;;;10.80;99.90;;;;;;5058963;28;20290;-34
2021/04/15 10:25:38;;;;;;;3.75;2.72;;;10.60;99.90;;;;;;5061956;28;20194;-33
2021/04/15 10:28:14;;;;;;;3.40;2.78;;;10.50;99.90;;;;;;5070378;28;20677;-34
2021/04/15 10:31:13;;;;;;;4.82;2.40;;;10.40;99.90;;;;;;5050861;28;20265;-33
2021/04/15 10:34:07;;;;;;;3.78;2.33;;;10.60;99.90;;;;;;5068089;28;20267;-34
2021/04/15 10:36:52;;;;;;;10.60;8.18;;;11.10;99.90;;;;;;5070110;28;20280;-36
2021/04/15 10:40:07;;;;;;;9.68;3.30;;;11.40;99.90;;;;;;5067654;28;20253;-33
2021/04/15 10:43:14;;;;;;;3.40;3.10;;;11.60;99.90;;;;;;5070112;28;20190;-36
2021/04/15 10:46:05;;;;;;;4.05;3.45;;;11.50;99.90;;;;;;5067235;28;20225;-34
2021/04/15 10:48:55;;;;;;;5.78;2.70;;;11.30;99.90;;;;;;5063403;28;20237;-34
2021/04/15 10:51:34;;;;;;;4.05;3.28;;;11.20;99.90;;;;;;5069886;28;20237;-35
2021/04/15 10:54:18;;;;;;;4.60;3.33;;;11.30;99.90;;;;;;5070276;28;20243;-36
2021/04/15 10:56:48;;;;;;;3.30;2.50;;;11.20;99.90;;;;;;5069976;28;20198;-34
2021/04/15 10:59:35;;;;;;;3.25;2.63;;;11.00;99.90;;;;;;5069565;28;20190;-34
2021/04/15 11:02:17;;;;;;;3.47;2.25;;;11.00;99.90;;;;;;5069676;28;20211;-37
2021/04/15 11:04:45;;;;;;;2.92;1.52;;;11.20;99.90;;;;;;5066117;28;20209;-34
2021/04/15 11:07:18;;;;;;;3.03;2.05;;;11.00;99.90;;;;;;5066246;28;20596;-34
2021/04/15 11:09:46;;;;;;;2.63;2.00;;;10.80;99.90;;;;;;5061770;28;20202;-36
2021/04/15 11:12:27;;;;;;;4.30;1.90;;;10.80;99.90;;;;;;5072168;28;20306;-34
2021/04/15 11:15:06;;;;;;;5.20;2.20;;;10.60;99.90;;;;;;5072790;28;20207;-34
2021/04/15 11:17:37;;;;;;;30.25;23.20;;;10.40;99.90;;;;;;5073737;28;20672;-35
2021/04/15 11:20:14;;;;;;;2.95;2.70;;;10.50;99.90;;;;;;5073700;28;20247;-34
2021/04/15 11:22:43;;;;;;;1.90;1.77;;;10.40;99.90;;;;;;5071882;28;20216;-36
2021/04/15 11:25:19;;;;;;;6.28;3.28;;;10.50;99.90;;;;;;5073685;28;20191;-35
2021/04/15 11:27:48;;;;;;;3.05;2.45;;;10.50;99.90;;;;;;5073889;28;20198;-35
2021/04/15 11:30:32;;;;;;;2.40;2.22;;;10.50;99.90;;;;;;5074027;28;20201;-34
2021/04/15 11:32:59;;;;;;;2.08;1.98;;;10.40;99.90;;;;;;5074208;28;20218;-35
2021/04/15 11:35:26;;;;;;;3.33;2.33;;;10.60;99.90;;;;;;5073908;28;20253;-36
2021/04/15 11:38:08;;;;;;;3.53;2.90;;;10.50;99.90;;;;;;5073348;28;20194;-34
2021/04/15 11:40:47;;;;;;;4.25;2.47;;;10.40;99.90;;;;;;5073427;28;20657;-34
2021/04/15 11:43:23;;;;;;;2.97;2.55;;;10.30;99.90;;;;;;5076948;28;20241;-34
2021/04/15 11:45:52;;;;;;;2.50;2.30;;;10.30;99.90;;;;;;5073593;28;20210;-34
2021/04/15 11:48:21;;;;;;;3.33;1.90;;;10.20;99.90;;;;;;5073087;28;20211;-34
2021/04/15 11:50:49;;;;;;;15.60;12.20;;;10.20;99.90;;;;;;5072434;28;20224;-35
2021/04/15 11:53:43;;;;;;;7.07;4.85;;;10.00;99.90;;;;;;5072979;28;21358;-34
2021/04/15 11:56:28;;;;;;;3.33;3.03;;;10.00;99.90;;;;;;5072997;28;20190;-36
2021/04/15 11:59:13;;;;;;;3.88;2.63;;;9.90;99.90;;;;;;5073473;28;20287;-36
2021/04/15 12:01:40;;;;;;;4.45;3.60;;;9.80;99.90;;;;;;5072888;28;20197;-36
2021/04/15 12:04:12;;;;;;;3.65;2.88;;;9.80;99.90;;;;;;5073547;28;20216;-35
2021/04/15 12:06:42;;;;;;;3.97;2.38;;;9.70;99.90;;;;;;5073158;28;20271;-34
2021/04/15 12:09:14;;;;;;;3.83;2.90;;;9.80;99.90;;;;;;5071973;28;20203;-36
2021/04/15 12:11:50;;;;;;;2.65;2.28;;;9.80;99.90;;;;;;5072124;28;20241;-35
2021/04/15 12:14:17;;;;;;;3.15;2.67;;;9.90;99.90;;;;;;5072223;28;20708;-35
2021/04/15 12:16:53;;;;;;;3.17;2.15;;;10.20;99.90;;;;;;5072937;28;20182;-34
2021/04/15 12:19:27;;;;;;;4.72;2.47;;;10.30;99.90;;;;;;5072613;28;20332;-34
2021/04/15 12:21:59;;;;;;;4.40;2.58;;;10.40;99.90;;;;;;5071280;28;20201;-34
2021/04/15 12:24:37;;;;;;;3.15;2.25;;;10.50;99.90;;;;;;5070395;28;20222;-34
2021/04/15 12:27:05;;;;;;;4.40;2.67;;;10.50;99.90;;;;;;5073140;28;20209;-35
2021/04/15 12:29:38;;;;;;;5.50;2.95;;;10.50;99.90;;;;;;5072027;28;20226;-35
2021/04/15 12:32:20;;;;;;;11.52;10.43;;;10.50;99.90;;;;;;5072562;28;20415;-35
2021/04/15 12:35:05;;;;;;;6.68;6.00;;;10.50;99.90;;;;;;5072649;28;20198;-36
2021/04/15 12:37:37;;;;;;;4.72;4.43;;;10.50;99.90;;;;;;5072888;28;20199;-34
2021/04/15 12:40:26;;;;;;;3.35;2.63;;;10.60;99.90;;;;;;5073000;28;20293;-34
2021/04/15 12:42:56;;;;;;;2.95;2.58;;;10.90;99.90;;;;;;5072501;28;20222;-35
2021/04/15 12:45:27;;;;;;;7.20;3.03;;;11.40;99.90;;;;;;5072407;28;20202;-36
2021/04/15 12:47:57;;;;;;;3.72;2.47;;;11.90;99.90;;;;;;5072573;28;20274;-36
2021/04/15 12:50:24;;;;;;;3.58;2.75;;;12.50;99.90;;;;;;5072324;28;20280;-34
2021/04/15 12:52:51;;;;;;;4.78;2.75;;;12.80;99.90;;;;;;5071872;28;20231;-36
2021/04/15 12:55:21;;;;;;;5.00;2.35;;;12.70;99.90;;;;;;5072313;28;20252;-35
2021/04/15 12:57:48;;;;;;;3.40;2.70;;;12.80;99.90;;;;;;5070444;28;20198;-37
2021/04/15 13:00:20;;;;;;;3.42;2.08;;;13.00;99.90;;;;;;5070486;28;20291;-36
2021/04/15 13:02:48;;;;;;;3.30;2.40;;;12.90;99.90;;;;;;5071706;28;20357;-35
2021/04/15 13:05:52;;;;;;;2.58;2.22;;;12.60;99.90;;;;;;5072191;28;20194;-36
2021/04/15 13:08:35;;;;;;;3.40;2.47;;;12.40;99.90;;;;;;5050795;28;20210;-36
2021/04/15 13:11:06;;;;;;;2.97;2.38;;;11.90;99.90;;;;;;5052206;28;20732;-37
2021/04/15 13:13:41;;;;;;;2.55;2.35;;;11.40;99.90;;;;;;5051791;28;20227;-35
2021/04/15 13:16:37;;;;;;;2.70;1.88;;;11.00;99.90;;;;;;5052303;28;20247;-35
2021/04/15 13:19:32;;;;;;;4.88;3.63;;;11.00;99.90;;;;;;5064237;28;20198;-35
2021/04/15 13:22:03;;;;;;;2.58;2.33;;;10.90;99.90;;;;;;5071799;28;20561;-34
2021/04/15 13:25:06;;;;;;;4.70;2.50;;;10.60;99.90;;;;;;5071287;28;20507;-36
2021/04/15 13:28:01;;;;;;;2.88;2.30;;;10.60;99.90;;;;;;5070316;28;20205;-39
2021/04/15 13:30:35;;;;;;;3.55;2.53;;;10.20;99.90;;;;;;5071384;28;20565;-34
2021/04/15 13:33:10;;;;;;;3.10;2.67;;;10.30;99.90;;;;;;5068034;28;20229;-35
2021/04/15 13:35:44;;;;;;;5.03;2.22;;;10.30;99.90;;;;;;5070791;28;20226;-34
2021/04/15 13:38:39;;;;;;;5.82;1.90;;;10.30;99.90;;;;;;5071788;28;20286;-35
2021/04/15 13:41:08;;;;;;;6.15;4.22;;;10.50;99.90;;;;;;5071149;28;20199;-36